createdAt,value
2023-01-08T06:17:49.421Z,997.12
2023-01-08T06:27:49.438Z,997.00
2023-01-08T06:37:49.420Z,996.86
2023-01-08T06:47:49.517Z,996.86
2023-01-08T06:57:49.426Z,996.84
2023-01-08T07:07:49.471Z,996.91
2023-01-08T07:17:49.431Z,996.86
2023-01-08T07:27:49.393Z,996.79
2023-01-08T07:37:49.568Z,996.87
2023-01-08T07:47:49.752Z,996.95
2023-01-08T07:57:49.636Z,996.95
2023-01-08T08:07:49.727Z,996.86
2023-01-08T08:17:49.517Z,996.81
2023-01-08T08:27:49.482Z,996.73
2023-01-08T08:37:49.646Z,996.66
2023-01-08T08:47:49.818Z,996.53
2023-01-08T08:57:50.046Z,996.39
2023-01-08T09:07:49.926Z,996.17
2023-01-08T09:17:50.133Z,996.09
2023-01-08T09:27:50.146Z,996.29
2023-01-08T09:37:49.955Z,996.14
2023-01-08T09:47:49.988Z,996.23
2023-01-08T09:57:49.987Z,996.21
2023-01-08T10:07:49.917Z,996.26
2023-01-08T10:17:50.038Z,996.36
2023-01-08T10:27:49.960Z,996.27
2023-01-08T10:37:50.100Z,995.99
2023-01-08T10:47:50.045Z,995.94
2023-01-08T10:57:49.877Z,996.02
2023-01-08T11:07:50.227Z,995.92
2023-01-08T11:17:50.075Z,995.91
2023-01-08T11:27:50.078Z,995.64
2023-01-08T11:37:50.115Z,995.61
2023-01-08T11:47:50.065Z,995.56
2023-01-08T11:57:50.044Z,995.51
2023-01-08T12:07:50.190Z,995.37
2023-01-08T12:17:49.980Z,995.08
2023-01-08T12:27:56.927Z,994.93
2023-01-08T12:37:51.936Z,994.87
2023-01-08T12:47:50.076Z,994.80
2023-01-08T12:57:50.154Z,994.84
2023-01-08T13:07:50.184Z,994.68
2023-01-08T13:17:50.061Z,994.44
2023-01-08T13:27:50.249Z,994.37
2023-01-08T13:37:50.078Z,994.27
2023-01-08T13:47:50.022Z,994.20
2023-01-08T13:57:50.107Z,994.05
2023-01-08T14:07:50.007Z,994.06
2023-01-08T14:17:50.027Z,994.12
2023-01-08T14:27:50.107Z,994.17
2023-01-08T14:37:50.200Z,994.02
2023-01-08T14:47:50.324Z,994.06
2023-01-08T14:57:50.334Z,994.12
2023-01-08T15:07:50.496Z,994.05
2023-01-08T15:17:50.451Z,993.83
2023-01-08T15:27:52.621Z,993.68
2023-01-08T15:37:50.421Z,993.60
2023-01-08T15:47:50.544Z,993.50
2023-01-08T15:57:50.525Z,993.66
2023-01-08T16:07:50.360Z,993.58
2023-01-08T16:17:50.522Z,993.42
2023-01-08T16:27:50.469Z,993.41
2023-01-08T16:37:50.542Z,993.36
2023-01-08T16:47:50.539Z,993.34
2023-01-08T16:57:50.555Z,993.36
2023-01-08T17:07:50.634Z,993.31
2023-01-08T17:17:50.587Z,993.16
2023-01-08T17:27:52.205Z,993.31
2023-01-08T17:37:50.667Z,993.14
2023-01-08T17:47:50.486Z,993.32
2023-01-08T17:57:50.482Z,993.42
2023-01-08T18:07:50.579Z,993.15
2023-01-08T18:17:50.574Z,993.30
2023-01-08T18:27:50.682Z,993.12
2023-01-08T18:37:50.630Z,993.01
2023-01-08T18:47:50.806Z,993.02
2023-01-08T18:57:51.077Z,993.00
2023-01-08T19:07:50.982Z,992.86
2023-01-08T19:17:51.287Z,992.74
